sensor_id;sensor_type;location;lat;lon;timestamp;temperature;humidity
40291;DHT22;26000;48.304;13.626;2023-04-09T00:01:24;6.50;99.90
40291;DHT22;26000;48.304;13.626;2023-04-09T00:03:50;6.40;99.90
40291;DHT22;26000;48.304;13.626;2023-04-09T00:06:16;6.40;99.90
40291;DHT22;26000;48.304;13.626;2023-04-09T00:08:41;6.40;99.90
40291;DHT22;26000;48.304;13.626;2023-04-09T00:11:07;6.50;99.90
40291;DHT22;26000;48.304;13.626;2023-04-09T00:13:32;6.40;99.90
40291;DHT22;26000;48.304;13.626;2023-04-09T00:15:58;6.40;99.90
40291;DHT22;26000;48.304;13.626;2023-04-09T00:18:23;6.40;99.90
40291;DHT22;26000;48.304;13.626;2023-04-09T00:20:49;6.40;99.90
40291;DHT22;26000;48.304;13.626;2023-04-09T00:23:15;6.40;99.90
40291;DHT22;26000;48.304;13.626;2023-04-09T00:25:40;6.30;99.90
40291;DHT22;26000;48.304;13.626;2023-04-09T00:28:06;6.20;99.90
40291;DHT22;26000;48.304;13.626;2023-04-09T00:30:32;6.20;99.90
40291;DHT22;26000;48.304;13.626;2023-04-09T00:32:57;6.20;99.90
40291;DHT22;26000;48.304;13.626;2023-04-09T00:35:23;6.20;99.90
40291;DHT22;26000;48.304;13.626;2023-04-09T00:37:49;6.20;99.90
40291;DHT22;26000;48.304;13.626;2023-04-09T00:40:15;6.20;99.90
40291;DHT22;26000;48.304;13.626;2023-04-09T00:42:40;6.20;99.90
40291;DHT22;26000;48.304;13.626;2023-04-09T00:45:07;6.10;99.90
40291;DHT22;26000;48.304;13.626;2023-04-09T00:47:34;6.20;99.90
40291;DHT22;26000;48.304;13.626;2023-04-09T00:50:01;6.20;99.90
40291;DHT22;26000;48.304;13.626;2023-04-09T00:52:27;6.20;99.90
40291;DHT22;26000;48.304;13.626;2023-04-09T00:54:55;6.10;99.90
40291;DHT22;26000;48.304;13.626;2023-04-09T00:57:22;6.10;99.90
40291;DHT22;26000;48.304;13.626;2023-04-09T00:59:48;6.10;99.90
40291;DHT22;26000;48.304;13.626;2023-04-09T01:02:13;6.20;99.90
40291;DHT22;26000;48.304;13.626;2023-04-09T01:04:41;6.20;99.90
40291;DHT22;26000;48.304;13.626;2023-04-09T01:10:46;6.20;99.90
40291;DHT22;26000;48.304;13.626;2023-04-09T01:13:29;6.10;99.90
40291;DHT22;26000;48.304;13.626;2023-04-09T01:15:59;6.10;99.90
40291;DHT22;26000;48.304;13.626;2023-04-09T01:18:42;6.20;99.90
40291;DHT22;26000;48.304;13.626;2023-04-09T01:21:14;6.20;99.90
40291;DHT22;26000;48.304;13.626;2023-04-09T01:23:53;6.20;99.90
40291;DHT22;26000;48.304;13.626;2023-04-09T01:26:37;6.20;99.90
40291;DHT22;26000;48.304;13.626;2023-04-09T01:29:06;6.20;99.90
40291;DHT22;26000;48.304;13.626;2023-04-09T01:31:35;6.20;99.90
40291;DHT22;26000;48.304;13.626;2023-04-09T01:34:02;6.20;99.90
40291;DHT22;26000;48.304;13.626;2023-04-09T01:36:30;6.30;99.90
40291;DHT22;26000;48.304;13.626;2023-04-09T01:38:57;6.30;99.90
40291;DHT22;26000;48.304;13.626;2023-04-09T01:41:25;6.30;99.90
40291;DHT22;26000;48.304;13.626;2023-04-09T01:43:51;6.40;99.90
40291;DHT22;26000;48.304;13.626;2023-04-09T01:46:18;6.30;99.90
40291;DHT22;26000;48.304;13.626;2023-04-09T01:48:45;6.30;99.90
40291;DHT22;26000;48.304;13.626;2023-04-09T01:51:11;6.30;99.90
40291;DHT22;26000;48.304;13.626;2023-04-09T01:53:41;6.20;99.90
40291;DHT22;26000;48.304;13.626;2023-04-09T01:56:08;6.30;99.90
40291;DHT22;26000;48.304;13.626;2023-04-09T01:58:33;6.30;99.90
40291;DHT22;26000;48.304;13.626;2023-04-09T02:03:59;6.30;99.90
40291;DHT22;26000;48.304;13.626;2023-04-09T02:06:50;6.30;99.90
40291;DHT22;26000;48.304;13.626;2023-04-09T02:09:19;6.30;99.90
40291;DHT22;26000;48.304;13.626;2023-04-09T02:11:46;6.30;99.90
40291;DHT22;26000;48.304;13.626;2023-04-09T02:14:14;6.30;99.90
40291;DHT22;26000;48.304;13.626;2023-04-09T02:16:40;6.30;99.90
40291;DHT22;26000;48.304;13.626;2023-04-09T02:19:06;6.30;99.90
40291;DHT22;26000;48.304;13.626;2023-04-09T02:21:32;6.40;99.90
40291;DHT22;26000;48.304;13.626;2023-04-09T02:23:58;6.30;99.90
40291;DHT22;26000;48.304;13.626;2023-04-09T02:26:24;6.30;99.90
40291;DHT22;26000;48.304;13.626;2023-04-09T02:28:50;6.30;99.90
40291;DHT22;26000;48.304;13.626;2023-04-09T02:31:15;6.30;99.90
40291;DHT22;26000;48.304;13.626;2023-04-09T02:33:41;6.30;99.90
40291;DHT22;26000;48.304;13.626;2023-04-09T02:36:10;6.30;99.90
40291;DHT22;26000;48.304;13.626;2023-04-09T02:38:42;6.30;99.90
40291;DHT22;26000;48.304;13.626;2023-04-09T02:41:08;6.30;99.90
40291;DHT22;26000;48.304;13.626;2023-04-09T02:43:33;6.20;99.90
40291;DHT22;26000;48.304;13.626;2023-04-09T02:45:59;6.20;99.90
40291;DHT22;26000;48.304;13.626;2023-04-09T02:48:25;6.20;99.90
40291;DHT22;26000;48.304;13.626;2023-04-09T02:50:50;6.20;99.90
40291;DHT22;26000;48.304;13.626;2023-04-09T02:53:16;6.20;99.90
40291;DHT22;26000;48.304;13.626;2023-04-09T02:55:41;6.30;99.90
40291;DHT22;26000;48.304;13.626;2023-04-09T02:58:07;6.20;99.90
40291;DHT22;26000;48.304;13.626;2023-04-09T03:00:32;6.30;99.90
40291;DHT22;26000;48.304;13.626;2023-04-09T03:02:58;6.30;99.90
40291;DHT22;26000;48.304;13.626;2023-04-09T03:05:24;6.30;99.90
40291;DHT22;26000;48.304;13.626;2023-04-09T03:07:50;6.20;99.90
40291;DHT22;26000;48.304;13.626;2023-04-09T03:10:15;6.20;99.90
40291;DHT22;26000;48.304;13.626;2023-04-09T03:12:41;6.30;99.90
40291;DHT22;26000;48.304;13.626;2023-04-09T03:15:09;6.20;99.90
40291;DHT22;26000;48.304;13.626;2023-04-09T03:17:35;6.20;99.90
40291;DHT22;26000;48.304;13.626;2023-04-09T03:20:01;6.20;99.90
40291;DHT22;26000;48.304;13.626;2023-04-09T03:22:26;6.20;99.90
40291;DHT22;26000;48.304;13.626;2023-04-09T03:24:52;6.20;99.90
40291;DHT22;26000;48.304;13.626;2023-04-09T03:27:18;6.20;99.90
40291;DHT22;26000;48.304;13.626;2023-04-09T03:29:43;6.30;99.90
40291;DHT22;26000;48.304;13.626;2023-04-09T03:32:09;6.40;99.90
40291;DHT22;26000;48.304;13.626;2023-04-09T03:34:34;6.40;99.90
40291;DHT22;26000;48.304;13.626;2023-04-09T03:37:00;6.40;99.90
40291;DHT22;26000;48.304;13.626;2023-04-09T03:39:26;6.30;99.90
40291;DHT22;26000;48.304;13.626;2023-04-09T03:41:55;6.30;99.90
40291;DHT22;26000;48.304;13.626;2023-04-09T03:44:22;6.30;99.90
40291;DHT22;26000;48.304;13.626;2023-04-09T03:46:48;6.30;99.90
40291;DHT22;26000;48.304;13.626;2023-04-09T03:49:13;6.30;99.90
40291;DHT22;26000;48.304;13.626;2023-04-09T03:51:39;6.30;99.90
40291;DHT22;26000;48.304;13.626;2023-04-09T03:54:05;6.40;99.90
40291;DHT22;26000;48.304;13.626;2023-04-09T03:56:30;6.40;99.90
40291;DHT22;26000;48.304;13.626;2023-04-09T03:58:56;6.40;99.90
40291;DHT22;26000;48.304;13.626;2023-04-09T04:01:21;6.40;99.90
40291;DHT22;26000;48.304;13.626;2023-04-09T04:03:47;6.40;99.90
40291;DHT22;26000;48.304;13.626;2023-04-09T04:06:12;6.40;99.90
40291;DHT22;26000;48.304;13.626;2023-04-09T04:08:38;6.30;99.90
40291;DHT22;26000;48.304;13.626;2023-04-09T04:11:04;6.40;99.90
40291;DHT22;26000;48.304;13.626;2023-04-09T04:13:30;6.40;99.90
40291;DHT22;26000;48.304;13.626;2023-04-09T04:15:55;6.40;99.90
40291;DHT22;26000;48.304;13.626;2023-04-09T04:18:21;6.40;99.90
40291;DHT22;26000;48.304;13.626;2023-04-09T04:20:46;6.40;99.90
40291;DHT22;26000;48.304;13.626;2023-04-09T04:23:12;6.30;99.90
40291;DHT22;26000;48.304;13.626;2023-04-09T04:25:41;6.30;99.90
40291;DHT22;26000;48.304;13.626;2023-04-09T04:28:07;6.20;99.90
40291;DHT22;26000;48.304;13.626;2023-04-09T04:30:32;6.40;99.90
40291;DHT22;26000;48.304;13.626;2023-04-09T04:32:58;6.40;99.90
40291;DHT22;26000;48.304;13.626;2023-04-09T04:35:24;6.40;99.90
40291;DHT22;26000;48.304;13.626;2023-04-09T04:37:49;6.30;99.90
40291;DHT22;26000;48.304;13.626;2023-04-09T04:40:15;6.40;99.90
40291;DHT22;26000;48.304;13.626;2023-04-09T04:42:41;6.40;99.90
40291;DHT22;26000;48.304;13.626;2023-04-09T04:45:07;6.40;99.90
40291;DHT22;26000;48.304;13.626;2023-04-09T04:47:33;6.30;99.90
40291;DHT22;26000;48.304;13.626;2023-04-09T04:49:59;6.40;99.90
40291;DHT22;26000;48.304;13.626;2023-04-09T04:52:24;6.30;99.90
40291;DHT22;26000;48.304;13.626;2023-04-09T04:54:50;6.30;99.90
40291;DHT22;26000;48.304;13.626;2023-04-09T04:57:15;6.30;99.90
40291;DHT22;26000;48.304;13.626;2023-04-09T04:59:41;6.30;99.90
40291;DHT22;26000;48.304;13.626;2023-04-09T05:02:07;6.40;99.90
40291;DHT22;26000;48.304;13.626;2023-04-09T05:04:33;6.30;99.90
40291;DHT22;26000;48.304;13.626;2023-04-09T05:06:58;6.30;99.90
40291;DHT22;26000;48.304;13.626;2023-04-09T05:09:24;6.20;99.90
40291;DHT22;26000;48.304;13.626;2023-04-09T05:11:50;6.30;99.90
40291;DHT22;26000;48.304;13.626;2023-04-09T05:14:16;6.20;99.90
40291;DHT22;26000;48.304;13.626;2023-04-09T05:16:42;6.30;99.90
40291;DHT22;26000;48.304;13.626;2023-04-09T05:19:07;6.30;99.90
40291;DHT22;26000;48.304;13.626;2023-04-09T05:21:33;6.30;99.90
40291;DHT22;26000;48.304;13.626;2023-04-09T05:23:58;6.30;99.90
40291;DHT22;26000;48.304;13.626;2023-04-09T05:26:25;6.40;99.90
40291;DHT22;26000;48.304;13.626;2023-04-09T05:28:51;6.40;99.90
40291;DHT22;26000;48.304;13.626;2023-04-09T05:31:17;6.30;99.90
40291;DHT22;26000;48.304;13.626;2023-04-09T05:33:43;6.40;99.90
40291;DHT22;26000;48.304;13.626;2023-04-09T05:36:16;6.40;99.90
40291;DHT22;26000;48.304;13.626;2023-04-09T05:38:43;6.50;99.90
40291;DHT22;26000;48.304;13.626;2023-04-09T05:41:10;6.50;99.90
40291;DHT22;26000;48.304;13.626;2023-04-09T05:43:35;6.50;99.90
40291;DHT22;26000;48.304;13.626;2023-04-09T05:46:01;6.50;99.90
40291;DHT22;26000;48.304;13.626;2023-04-09T05:48:27;6.50;99.90
40291;DHT22;26000;48.304;13.626;2023-04-09T05:50:52;6.50;99.90
40291;DHT22;26000;48.304;13.626;2023-04-09T05:53:18;6.50;99.90
40291;DHT22;26000;48.304;13.626;2023-04-09T05:55:45;6.50;99.90
40291;DHT22;26000;48.304;13.626;2023-04-09T05:58:11;6.40;99.90
40291;DHT22;26000;48.304;13.626;2023-04-09T06:00:37;6.30;99.90
40291;DHT22;26000;48.304;13.626;2023-04-09T06:03:04;6.40;99.90
40291;DHT22;26000;48.304;13.626;2023-04-09T06:05:29;6.50;99.90
40291;DHT22;26000;48.304;13.626;2023-04-09T06:07:55;6.50;99.90
40291;DHT22;26000;48.304;13.626;2023-04-09T06:10:23;6.50;99.90
40291;DHT22;26000;48.304;13.626;2023-04-09T06:12:48;6.40;99.90
40291;DHT22;26000;48.304;13.626;2023-04-09T06:15:14;6.40;99.90
40291;DHT22;26000;48.304;13.626;2023-04-09T06:17:40;6.40;99.90
40291;DHT22;26000;48.304;13.626;2023-04-09T06:20:06;6.50;99.90
40291;DHT22;26000;48.304;13.626;2023-04-09T06:22:32;6.50;99.90
40291;DHT22;26000;48.304;13.626;2023-04-09T06:24:57;6.50;99.90
40291;DHT22;26000;48.304;13.626;2023-04-09T06:27:23;6.60;99.90
40291;DHT22;26000;48.304;13.626;2023-04-09T06:29:48;6.60;99.90
40291;DHT22;26000;48.304;13.626;2023-04-09T06:32:14;6.70;99.90
40291;DHT22;26000;48.304;13.626;2023-04-09T06:34:40;6.80;99.90
40291;DHT22;26000;48.304;13.626;2023-04-09T06:37:05;6.80;99.90
40291;DHT22;26000;48.304;13.626;2023-04-09T06:39:31;6.80;99.90
40291;DHT22;26000;48.304;13.626;2023-04-09T06:41:57;6.80;99.90
40291;DHT22;26000;48.304;13.626;2023-04-09T06:44:23;6.80;99.90
40291;DHT22;26000;48.304;13.626;2023-04-09T06:46:49;6.80;99.90
40291;DHT22;26000;48.304;13.626;2023-04-09T06:49:15;6.80;99.90
40291;DHT22;26000;48.304;13.626;2023-04-09T06:51:40;6.80;99.90
40291;DHT22;26000;48.304;13.626;2023-04-09T06:54:06;6.90;99.90
40291;DHT22;26000;48.304;13.626;2023-04-09T06:56:33;6.90;99.90
40291;DHT22;26000;48.304;13.626;2023-04-09T06:58:58;6.90;99.90
40291;DHT22;26000;48.304;13.626;2023-04-09T07:01:24;7.00;99.90
40291;DHT22;26000;48.304;13.626;2023-04-09T07:03:50;7.00;99.90
40291;DHT22;26000;48.304;13.626;2023-04-09T07:06:16;7.00;99.90
40291;DHT22;26000;48.304;13.626;2023-04-09T07:08:41;6.90;99.90
40291;DHT22;26000;48.304;13.626;2023-04-09T07:11:07;6.90;99.90
40291;DHT22;26000;48.304;13.626;2023-04-09T07:13:33;7.00;99.90
40291;DHT22;26000;48.304;13.626;2023-04-09T07:15:58;7.00;99.90
40291;DHT22;26000;48.304;13.626;2023-04-09T07:18:25;7.00;99.90
40291;DHT22;26000;48.304;13.626;2023-04-09T07:20:51;7.00;99.90
40291;DHT22;26000;48.304;13.626;2023-04-09T07:23:18;7.10;99.90
40291;DHT22;26000;48.304;13.626;2023-04-09T07:25:43;7.10;99.90
40291;DHT22;26000;48.304;13.626;2023-04-09T07:28:09;7.10;99.90
40291;DHT22;26000;48.304;13.626;2023-04-09T07:30:36;7.20;99.90
40291;DHT22;26000;48.304;13.626;2023-04-09T07:33:01;7.20;99.90
40291;DHT22;26000;48.304;13.626;2023-04-09T07:35:27;7.30;99.90
40291;DHT22;26000;48.304;13.626;2023-04-09T07:37:52;7.30;99.90
40291;DHT22;26000;48.304;13.626;2023-04-09T07:40:18;7.30;99.90
40291;DHT22;26000;48.304;13.626;2023-04-09T07:42:44;7.40;99.90
40291;DHT22;26000;48.304;13.626;2023-04-09T07:45:10;7.40;99.90
40291;DHT22;26000;48.304;13.626;2023-04-09T07:47:37;7.40;99.90
40291;DHT22;26000;48.304;13.626;2023-04-09T07:50:03;7.40;99.90
40291;DHT22;26000;48.304;13.626;2023-04-09T07:52:28;7.40;99.90
40291;DHT22;26000;48.304;13.626;2023-04-09T07:54:54;7.50;99.90
40291;DHT22;26000;48.304;13.626;2023-04-09T07:57:22;7.50;99.90
40291;DHT22;26000;48.304;13.626;2023-04-09T07:59:48;7.50;99.90
40291;DHT22;26000;48.304;13.626;2023-04-09T08:02:16;7.50;99.90
40291;DHT22;26000;48.304;13.626;2023-04-09T08:04:42;7.40;99.90
40291;DHT22;26000;48.304;13.626;2023-04-09T08:07:07;7.50;99.90
40291;DHT22;26000;48.304;13.626;2023-04-09T08:09:33;7.50;99.90
40291;DHT22;26000;48.304;13.626;2023-04-09T08:11:59;7.60;99.90
40291;DHT22;26000;48.304;13.626;2023-04-09T08:14:25;7.60;99.90
40291;DHT22;26000;48.304;13.626;2023-04-09T08:16:51;7.70;99.90
40291;DHT22;26000;48.304;13.626;2023-04-09T08:19:16;7.70;99.90
40291;DHT22;26000;48.304;13.626;2023-04-09T08:21:43;7.70;99.90
40291;DHT22;26000;48.304;13.626;2023-04-09T08:24:09;7.80;99.90
40291;DHT22;26000;48.304;13.626;2023-04-09T08:26:36;7.80;99.90
40291;DHT22;26000;48.304;13.626;2023-04-09T08:29:02;7.80;99.90
40291;DHT22;26000;48.304;13.626;2023-04-09T08:31:28;7.90;99.90
40291;DHT22;26000;48.304;13.626;2023-04-09T08:33:54;7.80;99.90
40291;DHT22;26000;48.304;13.626;2023-04-09T08:36:20;7.90;99.90
40291;DHT22;26000;48.304;13.626;2023-04-09T08:38:46;8.00;99.90
40291;DHT22;26000;48.304;13.626;2023-04-09T08:41:22;8.10;99.90
40291;DHT22;26000;48.304;13.626;2023-04-09T08:43:54;8.20;99.90
40291;DHT22;26000;48.304;13.626;2023-04-09T08:46:20;8.20;99.90
40291;DHT22;26000;48.304;13.626;2023-04-09T08:48:47;8.20;99.90
40291;DHT22;26000;48.304;13.626;2023-04-09T08:51:20;8.30;99.90
40291;DHT22;26000;48.304;13.626;2023-04-09T08:53:47;8.20;99.90
40291;DHT22;26000;48.304;13.626;2023-04-09T08:56:15;8.10;99.90
40291;DHT22;26000;48.304;13.626;2023-04-09T08:58:42;8.10;99.90
40291;DHT22;26000;48.304;13.626;2023-04-09T09:01:28;8.00;99.90
40291;DHT22;26000;48.304;13.626;2023-04-09T09:04:03;8.00;99.90
40291;DHT22;26000;48.304;13.626;2023-04-09T09:06:33;8.00;99.90
40291;DHT22;26000;48.304;13.626;2023-04-09T09:11:38;8.10;99.90
40291;DHT22;26000;48.304;13.626;2023-04-09T09:14:09;8.20;99.90
40291;DHT22;26000;48.304;13.626;2023-04-09T09:16:37;8.20;99.90
40291;DHT22;26000;48.304;13.626;2023-04-09T09:19:07;8.20;99.90
40291;DHT22;26000;48.304;13.626;2023-04-09T09:21:32;8.20;99.90
40291;DHT22;26000;48.304;13.626;2023-04-09T09:23:59;8.20;99.90
40291;DHT22;26000;48.304;13.626;2023-04-09T09:26:29;8.10;99.90
40291;DHT22;26000;48.304;13.626;2023-04-09T09:28:56;8.20;99.90
40291;DHT22;26000;48.304;13.626;2023-04-09T09:31:25;8.10;99.90
40291;DHT22;26000;48.304;13.626;2023-04-09T09:33:51;8.00;99.90
40291;DHT22;26000;48.304;13.626;2023-04-09T09:36:31;8.00;99.90
40291;DHT22;26000;48.304;13.626;2023-04-09T09:38:58;8.10;99.90
40291;DHT22;26000;48.304;13.626;2023-04-09T09:41:26;8.00;99.90
40291;DHT22;26000;48.304;13.626;2023-04-09T09:43:52;8.00;99.90
40291;DHT22;26000;48.304;13.626;2023-04-09T09:46:18;8.00;99.90
40291;DHT22;26000;48.304;13.626;2023-04-09T09:48:45;8.10;99.90
40291;DHT22;26000;48.304;13.626;2023-04-09T09:51:12;8.00;99.90
40291;DHT22;26000;48.304;13.626;2023-04-09T09:53:40;8.00;99.90
40291;DHT22;26000;48.304;13.626;2023-04-09T09:56:14;8.00;99.90
40291;DHT22;26000;48.304;13.626;2023-04-09T09:58:44;8.00;99.90
40291;DHT22;26000;48.304;13.626;2023-04-09T10:01:13;8.00;99.90
40291;DHT22;26000;48.304;13.626;2023-04-09T10:03:42;8.00;99.90
40291;DHT22;26000;48.304;13.626;2023-04-09T10:06:10;8.10;99.90
40291;DHT22;26000;48.304;13.626;2023-04-09T10:08:37;8.20;99.90
40291;DHT22;26000;48.304;13.626;2023-04-09T10:11:05;8.20;99.90
40291;DHT22;26000;48.304;13.626;2023-04-09T10:13:38;8.30;99.90
40291;DHT22;26000;48.304;13.626;2023-04-09T10:16:05;8.40;99.90
40291;DHT22;26000;48.304;13.626;2023-04-09T10:18:32;8.60;99.90
40291;DHT22;26000;48.304;13.626;2023-04-09T10:21:06;8.70;99.90
40291;DHT22;26000;48.304;13.626;2023-04-09T10:23:42;8.80;99.90
40291;DHT22;26000;48.304;13.626;2023-04-09T10:26:08;8.90;99.90
40291;DHT22;26000;48.304;13.626;2023-04-09T10:28:36;9.00;99.90
40291;DHT22;26000;48.304;13.626;2023-04-09T10:31:04;9.00;99.90
40291;DHT22;26000;48.304;13.626;2023-04-09T10:33:29;9.10;99.90
40291;DHT22;26000;48.304;13.626;2023-04-09T10:36:09;9.10;99.90
40291;DHT22;26000;48.304;13.626;2023-04-09T10:38:35;9.10;99.90
40291;DHT22;26000;48.304;13.626;2023-04-09T10:41:27;9.10;99.90
40291;DHT22;26000;48.304;13.626;2023-04-09T10:43:53;9.20;99.90
40291;DHT22;26000;48.304;13.626;2023-04-09T10:46:30;9.10;99.90
40291;DHT22;26000;48.304;13.626;2023-04-09T10:49:18;9.10;99.90
40291;DHT22;26000;48.304;13.626;2023-04-09T10:51:47;9.10;99.90
40291;DHT22;26000;48.304;13.626;2023-04-09T10:54:44;9.10;99.90
40291;DHT22;26000;48.304;13.626;2023-04-09T10:57:20;9.20;99.90
40291;DHT22;26000;48.304;13.626;2023-04-09T10:59:48;9.10;99.90
40291;DHT22;26000;48.304;13.626;2023-04-09T11:07:44;9.10;99.90
40291;DHT22;26000;48.304;13.626;2023-04-09T11:10:11;9.00;99.90
40291;DHT22;26000;48.304;13.626;2023-04-09T11:12:37;8.90;99.90
40291;DHT22;26000;48.304;13.626;2023-04-09T11:15:03;8.90;99.90
40291;DHT22;26000;48.304;13.626;2023-04-09T11:17:28;8.90;99.90
40291;DHT22;26000;48.304;13.626;2023-04-09T11:19:55;8.90;99.90
40291;DHT22;26000;48.304;13.626;2023-04-09T11:22:21;8.90;99.90
40291;DHT22;26000;48.304;13.626;2023-04-09T11:24:46;9.00;99.90
40291;DHT22;26000;48.304;13.626;2023-04-09T11:27:12;9.00;99.90
40291;DHT22;26000;48.304;13.626;2023-04-09T11:29:38;9.00;99.90
40291;DHT22;26000;48.304;13.626;2023-04-09T11:32:04;9.00;99.90
40291;DHT22;26000;48.304;13.626;2023-04-09T11:34:33;9.10;99.90
40291;DHT22;26000;48.304;13.626;2023-04-09T11:36:58;9.10;99.90
40291;DHT22;26000;48.304;13.626;2023-04-09T11:39:26;9.20;99.90
40291;DHT22;26000;48.304;13.626;2023-04-09T11:41:52;9.10;99.90
40291;DHT22;26000;48.304;13.626;2023-04-09T11:44:19;9.10;99.90
40291;DHT22;26000;48.304;13.626;2023-04-09T11:46:45;9.20;99.90
40291;DHT22;26000;48.304;13.626;2023-04-09T11:49:12;9.30;99.90
40291;DHT22;26000;48.304;13.626;2023-04-09T11:51:38;9.40;99.90
40291;DHT22;26000;48.304;13.626;2023-04-09T11:54:07;9.50;99.90
40291;DHT22;26000;48.304;13.626;2023-04-09T11:56:34;9.60;99.90
40291;DHT22;26000;48.304;13.626;2023-04-09T11:59:01;9.70;99.90
40291;DHT22;26000;48.304;13.626;2023-04-09T12:01:34;9.80;99.90
40291;DHT22;26000;48.304;13.626;2023-04-09T12:04:00;9.90;99.90
40291;DHT22;26000;48.304;13.626;2023-04-09T12:06:26;10.00;99.90
40291;DHT22;26000;48.304;13.626;2023-04-09T12:08:54;10.20;99.90
40291;DHT22;26000;48.304;13.626;2023-04-09T12:11:27;10.30;99.90
40291;DHT22;26000;48.304;13.626;2023-04-09T12:14:05;10.40;99.90
40291;DHT22;26000;48.304;13.626;2023-04-09T12:16:34;10.50;99.90
40291;DHT22;26000;48.304;13.626;2023-04-09T12:19:07;10.50;99.90
40291;DHT22;26000;48.304;13.626;2023-04-09T12:21:52;10.50;99.90
40291;DHT22;26000;48.304;13.626;2023-04-09T12:24:19;10.50;99.90
40291;DHT22;26000;48.304;13.626;2023-04-09T12:26:46;10.60;99.90
40291;DHT22;26000;48.304;13.626;2023-04-09T12:29:13;10.60;99.90
40291;DHT22;26000;48.304;13.626;2023-04-09T12:31:40;10.70;99.90
40291;DHT22;26000;48.304;13.626;2023-04-09T12:34:05;10.80;99.90
40291;DHT22;26000;48.304;13.626;2023-04-09T12:36:31;10.80;99.90
40291;DHT22;26000;48.304;13.626;2023-04-09T12:38:57;10.70;99.90
40291;DHT22;26000;48.304;13.626;2023-04-09T12:41:22;10.60;99.90
40291;DHT22;26000;48.304;13.626;2023-04-09T12:43:48;10.50;99.90
40291;DHT22;26000;48.304;13.626;2023-04-09T12:46:13;10.40;99.90
40291;DHT22;26000;48.304;13.626;2023-04-09T12:48:39;10.30;99.90
40291;DHT22;26000;48.304;13.626;2023-04-09T12:51:05;10.10;99.90
40291;DHT22;26000;48.304;13.626;2023-04-09T12:53:31;10.00;99.90
40291;DHT22;26000;48.304;13.626;2023-04-09T12:55:57;9.90;99.90
40291;DHT22;26000;48.304;13.626;2023-04-09T12:58:23;9.70;99.90
40291;DHT22;26000;48.304;13.626;2023-04-09T13:00:49;9.70;99.90
40291;DHT22;26000;48.304;13.626;2023-04-09T13:03:14;9.70;99.90
40291;DHT22;26000;48.304;13.626;2023-04-09T13:05:43;9.60;99.90
40291;DHT22;26000;48.304;13.626;2023-04-09T13:08:08;9.70;99.90
40291;DHT22;26000;48.304;13.626;2023-04-09T13:10:34;9.70;99.90
40291;DHT22;26000;48.304;13.626;2023-04-09T13:13:01;9.70;99.90
40291;DHT22;26000;48.304;13.626;2023-04-09T13:15:27;9.80;99.90
40291;DHT22;26000;48.304;13.626;2023-04-09T13:17:55;9.90;99.90
40291;DHT22;26000;48.304;13.626;2023-04-09T13:20:20;10.00;99.90
40291;DHT22;26000;48.304;13.626;2023-04-09T13:22:46;10.10;99.90
40291;DHT22;26000;48.304;13.626;2023-04-09T13:25:13;10.10;99.90
40291;DHT22;26000;48.304;13.626;2023-04-09T13:27:39;10.30;99.90
40291;DHT22;26000;48.304;13.626;2023-04-09T13:30:06;10.30;99.90
40291;DHT22;26000;48.304;13.626;2023-04-09T13:32:32;10.40;99.90
40291;DHT22;26000;48.304;13.626;2023-04-09T13:34:57;10.50;99.90
40291;DHT22;26000;48.304;13.626;2023-04-09T13:37:23;10.60;99.90
40291;DHT22;26000;48.304;13.626;2023-04-09T13:39:49;10.70;99.90
40291;DHT22;26000;48.304;13.626;2023-04-09T13:42:16;10.80;99.90
40291;DHT22;26000;48.304;13.626;2023-04-09T13:44:42;10.80;99.90
40291;DHT22;26000;48.304;13.626;2023-04-09T13:47:13;10.80;99.90
40291;DHT22;26000;48.304;13.626;2023-04-09T13:49:40;10.80;99.90
40291;DHT22;26000;48.304;13.626;2023-04-09T13:52:07;10.80;99.90
40291;DHT22;26000;48.304;13.626;2023-04-09T13:54:33;10.80;99.90
40291;DHT22;26000;48.304;13.626;2023-04-09T13:56:59;10.80;99.90
40291;DHT22;26000;48.304;13.626;2023-04-09T13:59:24;10.80;99.90
40291;DHT22;26000;48.304;13.626;2023-04-09T14:01:50;10.90;99.90
40291;DHT22;26000;48.304;13.626;2023-04-09T14:04:16;10.80;99.90
40291;DHT22;26000;48.304;13.626;2023-04-09T14:06:42;10.80;99.90
40291;DHT22;26000;48.304;13.626;2023-04-09T14:09:08;10.80;99.90
40291;DHT22;26000;48.304;13.626;2023-04-09T14:11:34;10.90;99.90
40291;DHT22;26000;48.304;13.626;2023-04-09T14:14:00;10.90;99.90
40291;DHT22;26000;48.304;13.626;2023-04-09T14:16:26;11.00;99.90
40291;DHT22;26000;48.304;13.626;2023-04-09T14:18:52;11.00;99.90
40291;DHT22;26000;48.304;13.626;2023-04-09T14:21:18;11.10;99.90
40291;DHT22;26000;48.304;13.626;2023-04-09T14:23:44;11.10;99.90
40291;DHT22;26000;48.304;13.626;2023-04-09T14:26:09;11.10;99.90
40291;DHT22;26000;48.304;13.626;2023-04-09T14:28:35;11.20;99.90
40291;DHT22;26000;48.304;13.626;2023-04-09T14:31:02;11.20;99.90
40291;DHT22;26000;48.304;13.626;2023-04-09T14:33:28;11.30;99.90
40291;DHT22;26000;48.304;13.626;2023-04-09T14:35:54;11.20;99.90
40291;DHT22;26000;48.304;13.626;2023-04-09T14:38:21;11.20;99.90
40291;DHT22;26000;48.304;13.626;2023-04-09T14:40:48;11.20;99.90
40291;DHT22;26000;48.304;13.626;2023-04-09T14:43:14;11.10;99.90
40291;DHT22;26000;48.304;13.626;2023-04-09T14:45:39;11.00;99.90
40291;DHT22;26000;48.304;13.626;2023-04-09T14:48:05;11.00;99.90
40291;DHT22;26000;48.304;13.626;2023-04-09T14:50:31;11.10;99.90
40291;DHT22;26000;48.304;13.626;2023-04-09T14:52:58;10.80;99.90
40291;DHT22;26000;48.304;13.626;2023-04-09T14:55:24;10.80;99.90
40291;DHT22;26000;48.304;13.626;2023-04-09T14:57:50;10.80;99.90
40291;DHT22;26000;48.304;13.626;2023-04-09T15:00:16;10.70;99.90
40291;DHT22;26000;48.304;13.626;2023-04-09T15:02:41;10.80;99.90
40291;DHT22;26000;48.304;13.626;2023-04-09T15:05:07;10.90;99.90
40291;DHT22;26000;48.304;13.626;2023-04-09T15:07:33;10.80;99.90
40291;DHT22;26000;48.304;13.626;2023-04-09T15:09:59;10.80;99.90
40291;DHT22;26000;48.304;13.626;2023-04-09T15:12:31;10.70;99.90
40291;DHT22;26000;48.304;13.626;2023-04-09T15:14:57;10.70;99.90
40291;DHT22;26000;48.304;13.626;2023-04-09T15:17:24;10.70;99.90
40291;DHT22;26000;48.304;13.626;2023-04-09T15:19:52;10.80;99.90
40291;DHT22;26000;48.304;13.626;2023-04-09T15:22:18;10.80;99.90
40291;DHT22;26000;48.304;13.626;2023-04-09T15:24:44;10.70;99.90
40291;DHT22;26000;48.304;13.626;2023-04-09T15:27:09;10.60;99.90
40291;DHT22;26000;48.304;13.626;2023-04-09T15:29:35;10.60;99.90
40291;DHT22;26000;48.304;13.626;2023-04-09T15:32:01;10.60;99.90
40291;DHT22;26000;48.304;13.626;2023-04-09T15:34:26;10.80;99.90
40291;DHT22;26000;48.304;13.626;2023-04-09T15:36:52;10.70;99.90
40291;DHT22;26000;48.304;13.626;2023-04-09T15:39:18;10.60;99.90
40291;DHT22;26000;48.304;13.626;2023-04-09T15:41:43;10.50;99.90